createdAt,value
2023-11-28T00:02:49.954Z,2.10
2023-11-28T00:05:57.869Z,2.20
2023-11-28T00:09:03.869Z,2.10
2023-11-28T00:12:12.919Z,2.00
2023-11-28T00:15:19.853Z,2.17
2023-11-28T00:18:27.907Z,2.10
2023-11-28T00:21:33.898Z,1.95
2023-11-28T00:24:40.873Z,2.38
2023-11-28T00:27:48.370Z,2.30
2023-11-28T00:30:55.914Z,2.60
2023-11-28T00:34:04.904Z,2.40
2023-11-28T00:37:11.912Z,2.20
2023-11-28T00:40:20.898Z,2.05
2023-11-28T00:43:26.910Z,2.20
2023-11-28T00:46:33.158Z,2.20
2023-11-28T00:49:35.789Z,2.60
2023-11-28T00:52:36.965Z,2.50
2023-11-28T00:55:42.954Z,2.47
2023-11-28T00:58:50.152Z,2.38
2023-11-28T01:01:56.970Z,2.22
2023-11-28T01:05:06.999Z,2.75
2023-11-28T01:08:12.941Z,2.30
2023-11-28T01:11:19.997Z,2.50
2023-11-28T01:14:26.945Z,2.60
2023-11-28T01:17:32.954Z,2.88
2023-11-28T01:20:42.899Z,2.40
2023-11-28T01:23:48.958Z,2.30
2023-11-28T01:26:55.997Z,2.60
2023-11-28T01:30:02.947Z,2.53
2023-11-28T01:33:08.966Z,2.70
2023-11-28T01:36:18.937Z,2.28
2023-11-28T01:39:24.933Z,2.35
2023-11-28T01:42:31.913Z,2.80
2023-11-28T01:45:37.943Z,2.40
2023-11-28T01:48:45.961Z,2.80
2023-11-28T01:51:56.085Z,2.67
2023-11-28T01:55:03.922Z,2.70
2023-11-28T01:58:10.974Z,2.58
2023-11-28T02:01:18.932Z,2.50
2023-11-28T02:04:18.906Z,2.95
2023-11-28T02:07:24.069Z,2.80
2023-11-28T02:10:30.954Z,2.70
2023-11-28T02:13:38.138Z,2.75
2023-11-28T02:16:44.998Z,2.67
2023-11-28T02:19:51.026Z,2.60
2023-11-28T02:22:58.080Z,2.92
2023-11-28T02:26:05.006Z,2.92
2023-11-28T02:29:12.977Z,3.15
2023-11-28T02:32:19.099Z,2.80
2023-11-28T02:35:27.066Z,2.50
2023-11-28T02:38:33.017Z,2.90
2023-11-28T02:41:38.953Z,2.83
2023-11-28T02:44:46.989Z,3.20
2023-11-28T02:47:56.068Z,3.00
2023-11-28T02:51:02.970Z,2.80
2023-11-28T02:54:08.994Z,2.83
2023-11-28T02:57:16.030Z,2.92
2023-11-28T03:00:24.008Z,2.78
2023-11-28T03:03:30.998Z,2.80
2023-11-28T03:06:38.005Z,2.40
2023-11-28T03:09:45.179Z,2.70
2023-11-28T03:12:52.985Z,2.60
2023-11-28T03:16:02.069Z,2.70
2023-11-28T03:19:07.969Z,2.58
2023-11-28T03:22:15.025Z,2.85
2023-11-28T03:25:25.042Z,2.95
2023-11-28T03:28:31.114Z,3.00
2023-11-28T03:31:40.062Z,2.90
2023-11-28T03:34:46.056Z,2.78
2023-11-28T03:37:52.113Z,2.58
2023-11-28T03:40:58.105Z,2.92
2023-11-28T03:44:04.060Z,3.17
2023-11-28T03:47:14.104Z,2.97
2023-11-28T03:50:20.045Z,2.80
2023-11-28T03:53:26.036Z,2.80
2023-11-28T03:56:33.042Z,2.53
2023-11-28T03:59:39.066Z,2.83
2023-11-28T04:02:39.958Z,3.05
2023-11-28T04:05:39.006Z,2.85
2023-11-28T04:08:46.045Z,2.83
2023-11-28T04:11:55.095Z,2.90
2023-11-28T04:15:01.024Z,2.80
2023-11-28T04:18:12.301Z,2.83
2023-11-28T04:21:20.039Z,2.85
2023-11-28T04:24:20.065Z,2.65
2023-11-28T04:27:28.078Z,2.80
2023-11-28T04:30:34.104Z,2.65
2023-11-28T04:33:43.082Z,3.30
2023-11-28T04:36:50.044Z,2.90
2023-11-28T04:39:57.055Z,3.05
2023-11-28T04:43:04.064Z,3.20
2023-11-28T04:46:11.188Z,3.00
2023-11-28T04:49:21.089Z,3.03
2023-11-28T04:52:30.137Z,2.92
2023-11-28T04:55:38.131Z,2.90
2023-11-28T04:58:46.144Z,2.75
2023-11-28T05:01:52.180Z,3.10
2023-11-28T05:05:00.108Z,3.20
2023-11-28T05:08:07.125Z,3.30
2023-11-28T05:11:08.293Z,3.78
2023-11-28T05:14:11.133Z,3.35
2023-11-28T05:17:18.136Z,3.10
2023-11-28T05:20:28.129Z,3.22
2023-11-28T05:23:35.067Z,2.97
2023-11-28T05:26:43.205Z,3.55
2023-11-28T05:29:50.090Z,3.45
2023-11-28T05:32:58.164Z,3.28
2023-11-28T05:36:07.153Z,3.25
2023-11-28T05:39:15.141Z,3.40
2023-11-28T05:42:21.108Z,3.10
2023-11-28T05:45:28.116Z,3.42
2023-11-28T05:48:36.119Z,3.08
2023-11-28T05:51:46.047Z,3.53
2023-11-28T05:54:53.093Z,3.22
2023-11-28T05:58:00.190Z,3.30
2023-11-28T06:01:08.112Z,3.42
2023-11-28T06:04:14.160Z,3.58
2023-11-28T06:07:23.227Z,3.10
2023-11-28T06:10:29.151Z,3.25
2023-11-28T06:13:36.161Z,3.30
2023-11-28T06:16:42.180Z,3.17
2023-11-28T06:19:50.364Z,3.45
2023-11-28T06:22:58.162Z,3.50
2023-11-28T06:26:04.197Z,3.33
2023-11-28T06:29:11.164Z,3.35
2023-11-28T06:32:18.199Z,3.78
2023-11-28T06:35:25.206Z,3.42
2023-11-28T06:38:34.125Z,4.20
2023-11-28T06:41:41.113Z,3.97
2023-11-28T06:44:47.153Z,3.50
2023-11-28T06:47:53.288Z,3.95
2023-11-28T06:51:01.203Z,3.65
2023-11-28T06:54:09.153Z,3.72
2023-11-28T06:57:15.157Z,4.03
2023-11-28T07:00:22.138Z,4.13
2023-11-28T07:03:29.197Z,4.35
2023-11-28T07:06:35.187Z,4.20
2023-11-28T07:09:43.197Z,4.05
2023-11-28T07:12:49.129Z,4.68
2023-11-28T07:15:55.194Z,4.40
2023-11-28T07:18:54.978Z,4.20
2023-11-28T07:21:55.168Z,4.00
2023-11-28T07:25:02.493Z,3.72
2023-11-28T07:28:10.158Z,3.50
2023-11-28T07:31:09.994Z,3.75
2023-11-28T07:34:11.196Z,4.20
2023-11-28T07:37:18.192Z,4.28
2023-11-28T07:40:26.210Z,4.22
2023-11-28T07:43:33.191Z,4.60
2023-11-28T07:46:41.206Z,4.25
2023-11-28T07:49:47.229Z,4.68
2023-11-28T07:52:53.254Z,4.65
2023-11-28T07:56:01.193Z,4.80
2023-11-28T07:59:08.194Z,4.22
2023-11-28T08:02:15.317Z,4.70
2023-11-28T08:05:22.268Z,4.50
2023-11-28T08:08:28.178Z,4.90
2023-11-28T08:11:35.201Z,4.70
2023-11-28T08:14:41.255Z,4.57
2023-11-28T08:17:49.206Z,4.95
2023-11-28T08:20:56.217Z,4.60
2023-11-28T08:24:03.192Z,5.30
2023-11-28T08:27:11.200Z,5.38
2023-11-28T08:30:17.199Z,5.70
2023-11-28T08:33:23.241Z,5.40
2023-11-28T08:36:30.286Z,5.80
2023-11-28T08:39:37.252Z,6.47
2023-11-28T08:42:45.205Z,5.30
2023-11-28T08:45:51.308Z,5.47
2023-11-28T08:48:59.235Z,5.95
2023-11-28T08:52:06.074Z,5.35
2023-11-28T08:55:13.339Z,6.30
2023-11-28T08:58:21.224Z,6.20
2023-11-28T09:01:21.101Z,6.88
2023-11-28T09:04:20.290Z,6.00
2023-11-28T09:07:26.235Z,6.90
2023-11-28T09:10:33.238Z,7.57
2023-11-28T09:13:35.257Z,7.05
2023-11-28T09:16:41.297Z,6.70
2023-11-28T09:19:49.275Z,6.30
2023-11-28T09:22:56.364Z,5.90
2023-11-28T09:26:03.726Z,5.50
2023-11-28T09:29:13.268Z,6.30
2023-11-28T09:32:22.372Z,6.35
2023-11-28T09:35:23.615Z,6.28
2023-11-28T09:38:24.331Z,5.60
2023-11-28T09:41:39.958Z,6.18
2023-11-28T09:44:55.246Z,5.90
2023-11-28T09:48:02.396Z,6.38
2023-11-28T09:51:09.271Z,5.85
2023-11-28T09:54:16.351Z,5.68
2023-11-28T09:57:22.299Z,6.57
2023-11-28T10:00:32.292Z,5.72
2023-11-28T10:03:38.562Z,5.55
2023-11-28T10:06:46.337Z,5.30
2023-11-28T10:09:52.253Z,6.22
2023-11-28T10:12:59.333Z,5.78
2023-11-28T10:16:09.314Z,6.13
2023-11-28T10:19:15.292Z,5.75
2023-11-28T10:22:23.251Z,5.60
2023-11-28T10:25:29.274Z,5.70
2023-11-28T10:28:35.283Z,5.55
2023-11-28T10:31:44.315Z,5.30
2023-11-28T10:34:50.357Z,5.35
2023-11-28T10:37:56.353Z,6.00
2023-11-28T10:41:04.393Z,6.10
2023-11-28T10:44:11.740Z,5.80
2023-11-28T10:47:20.366Z,5.57
2023-11-28T10:50:27.342Z,5.97
2023-11-28T10:53:35.432Z,5.65
2023-11-28T10:56:43.307Z,5.60
2023-11-28T10:59:52.329Z,5.95
2023-11-28T11:03:01.525Z,5.75
2023-11-28T11:06:09.335Z,5.68
2023-11-28T11:09:15.275Z,5.80
2023-11-28T11:12:23.332Z,5.50
2023-11-28T11:15:35.369Z,6.22
2023-11-28T11:18:50.394Z,5.75
2023-11-28T11:21:58.312Z,5.80
2023-11-28T11:25:05.298Z,5.90
2023-11-28T11:28:11.396Z,5.55
2023-11-28T11:31:27.322Z,5.47
2023-11-28T11:34:50.420Z,6.05
2023-11-28T11:37:57.334Z,6.07
2023-11-28T11:41:04.324Z,5.90
2023-11-28T11:44:12.369Z,5.65
2023-11-28T11:47:30.659Z,6.18
2023-11-28T11:50:38.791Z,6.50
2023-11-28T11:53:46.419Z,5.53
2023-11-28T11:56:53.334Z,5.50
2023-11-28T12:00:01.341Z,5.70
2023-11-28T12:03:12.491Z,6.00
2023-11-28T12:06:19.348Z,5.60
2023-11-28T12:09:29.353Z,6.50
2023-11-28T12:12:35.343Z,6.25
2023-11-28T12:15:43.428Z,5.82
2023-11-28T12:18:49.421Z,5.82
2023-11-28T12:21:55.348Z,6.55
2023-11-28T12:25:03.531Z,5.93
2023-11-28T12:28:11.377Z,5.30
2023-11-28T12:31:19.420Z,6.18
2023-11-28T12:34:25.406Z,6.25
2023-11-28T12:37:31.372Z,6.53
2023-11-28T12:40:39.392Z,5.68
2023-11-28T12:43:46.389Z,5.70
2023-11-28T12:46:52.412Z,6.25
2023-11-28T12:49:58.413Z,5.80
2023-11-28T12:53:04.404Z,6.13
2023-11-28T12:56:15.395Z,5.82
2023-11-28T12:59:22.391Z,6.63
2023-11-28T13:02:28.540Z,6.82
2023-11-28T13:05:35.425Z,6.75
2023-11-28T13:08:42.381Z,7.03
2023-11-28T13:11:50.376Z,6.45
2023-11-28T13:14:56.657Z,7.45
2023-11-28T13:18:03.506Z,7.75
2023-11-28T13:21:11.439Z,8.30
2023-11-28T13:24:18.412Z,7.65
2023-11-28T13:27:27.411Z,7.40
2023-11-28T13:30:35.460Z,8.02
2023-11-28T13:33:41.479Z,7.28
2023-11-28T13:36:49.387Z,7.22
2023-11-28T13:39:55.471Z,7.30
2023-11-28T13:43:02.418Z,8.07
2023-11-28T13:46:09.480Z,7.65
2023-11-28T13:49:15.490Z,7.60
2023-11-28T13:52:21.416Z,7.88
2023-11-28T13:55:21.248Z,7.90
2023-11-28T13:58:23.714Z,7.60
2023-11-28T14:01:31.451Z,8.15
2023-11-28T14:04:38.421Z,7.63
2023-11-28T14:07:44.423Z,7.25
2023-11-28T14:10:50.603Z,8.10
2023-11-28T14:13:58.465Z,7.60
2023-11-28T14:17:04.489Z,7.78
2023-11-28T14:20:12.501Z,8.00
2023-11-28T14:23:20.661Z,8.20
2023-11-28T14:26:29.459Z,8.00
2023-11-28T14:29:32.298Z,8.25
2023-11-28T14:32:32.534Z,8.40
2023-11-28T14:35:39.511Z,8.45
2023-11-28T14:38:45.510Z,8.43
2023-11-28T14:41:51.461Z,8.30
2023-11-28T14:44:59.457Z,7.95
2023-11-28T14:48:05.660Z,8.60
2023-11-28T14:51:14.564Z,7.88
2023-11-28T14:54:20.428Z,7.90
2023-11-28T14:57:26.595Z,8.02
2023-11-28T15:00:37.455Z,8.50
2023-11-28T15:03:43.482Z,8.43
2023-11-28T15:06:51.497Z,8.48
2023-11-28T15:09:57.462Z,8.40
2023-11-28T15:13:06.449Z,9.15
2023-11-28T15:16:15.497Z,8.10
2023-11-28T15:19:22.495Z,8.52
2023-11-28T15:22:41.486Z,9.00
2023-11-28T15:25:49.509Z,7.97
2023-11-28T15:28:55.495Z,8.50
2023-11-28T15:32:06.631Z,7.45
2023-11-28T15:35:14.563Z,7.88
2023-11-28T15:38:21.533Z,8.05
2023-11-28T15:41:28.616Z,7.20
2023-11-28T15:44:36.568Z,7.72
2023-11-28T15:47:45.732Z,7.55
2023-11-28T15:50:53.542Z,7.78
2023-11-28T15:53:59.490Z,7.88
2023-11-28T15:57:10.342Z,7.78
2023-11-28T16:00:20.578Z,7.15
2023-11-28T16:03:28.613Z,8.07
2023-11-28T16:06:34.516Z,6.85
2023-11-28T16:09:42.500Z,7.20
2023-11-28T16:12:49.519Z,7.60
2023-11-28T16:15:55.512Z,7.20
2023-11-28T16:19:04.521Z,8.10
2023-11-28T16:22:14.538Z,7.20
2023-11-28T16:25:20.519Z,7.32
2023-11-28T16:28:28.489Z,6.75
2023-11-28T16:31:38.555Z,7.55
2023-11-28T16:34:46.529Z,6.95
2023-11-28T16:37:53.643Z,7.88
2023-11-28T16:41:00.577Z,6.75
2023-11-28T16:44:08.562Z,7.05
2023-11-28T16:47:15.612Z,7.25
2023-11-28T16:50:25.608Z,7.20
2023-11-28T16:53:31.624Z,7.68
2023-11-28T16:56:38.706Z,7.45
2023-11-28T16:59:46.641Z,6.53
2023-11-28T17:02:54.735Z,7.03
2023-11-28T17:06:04.542Z,7.68
2023-11-28T17:09:11.571Z,7.00
2023-11-28T17:12:18.602Z,6.95
2023-11-28T17:15:26.551Z,7.10
2023-11-28T17:18:33.597Z,7.07
2023-11-28T17:21:41.534Z,6.50
2023-11-28T17:24:47.550Z,6.13
2023-11-28T17:27:54.545Z,7.10
2023-11-28T17:31:01.691Z,6.20
2023-11-28T17:34:08.552Z,6.85
2023-11-28T17:37:16.563Z,6.55
2023-11-28T17:40:24.586Z,4.60
2023-11-28T17:43:30.588Z,4.90
2023-11-28T17:46:38.607Z,4.60
2023-11-28T17:49:44.564Z,4.75
2023-11-28T17:52:53.611Z,4.57
2023-11-28T17:55:59.590Z,4.40
2023-11-28T17:59:07.635Z,4.20
2023-11-28T18:02:13.799Z,4.70
2023-11-28T18:05:25.639Z,4.90
2023-11-28T18:08:35.609Z,4.63
2023-11-28T18:11:42.688Z,4.45
2023-11-28T18:14:49.585Z,5.40
2023-11-28T18:17:55.696Z,5.07
2023-11-28T18:21:11.769Z,5.25
2023-11-28T18:24:28.670Z,5.30
2023-11-28T18:27:34.611Z,5.18
2023-11-28T18:30:43.585Z,5.55
2023-11-28T18:33:49.645Z,5.22
2023-11-28T18:36:57.629Z,5.38
2023-11-28T18:40:05.623Z,4.85
2023-11-28T18:43:13.597Z,4.90
2023-11-28T18:46:19.659Z,5.20
2023-11-28T18:49:25.643Z,4.95
2023-11-28T18:52:32.632Z,4.78
2023-11-28T18:55:41.596Z,5.03
2023-11-28T18:58:41.517Z,5.03
2023-11-28T19:01:41.704Z,5.30
2023-11-28T19:04:49.690Z,5.85
2023-11-28T19:07:56.606Z,5.60
2023-11-28T19:11:05.626Z,5.97
2023-11-28T19:14:12.886Z,5.90
2023-11-28T19:17:20.768Z,6.63
2023-11-28T19:20:26.813Z,6.80
2023-11-28T19:23:32.805Z,6.22
2023-11-28T19:26:40.785Z,5.80
2023-11-28T19:29:46.788Z,5.65
2023-11-28T19:32:52.889Z,5.93
2023-11-28T19:36:00.779Z,6.03
2023-11-28T19:39:08.790Z,6.32
2023-11-28T19:42:16.752Z,6.43
2023-11-28T19:45:22.803Z,6.70
2023-11-28T19:48:28.783Z,6.13
2023-11-28T19:51:35.789Z,6.72
2023-11-28T19:54:43.788Z,6.63
2023-11-28T19:57:51.791Z,6.90
2023-11-28T20:00:59.756Z,6.93
2023-11-28T20:04:06.826Z,6.95
2023-11-28T20:07:13.844Z,6.97
2023-11-28T20:10:21.808Z,7.65
2023-11-28T20:13:29.838Z,7.13
2023-11-28T20:16:35.918Z,7.53
2023-11-28T20:19:42.795Z,6.85
2023-11-28T20:22:50.845Z,7.10
2023-11-28T20:25:57.894Z,7.70
2023-11-28T20:29:06.500Z,7.78
2023-11-28T20:32:19.852Z,7.60
2023-11-28T20:35:26.912Z,7.70
2023-11-28T20:38:32.812Z,9.38
2023-11-28T20:41:38.889Z,7.57
2023-11-28T20:44:46.804Z,8.70
2023-11-28T20:47:54.890Z,7.95
2023-11-28T20:51:00.824Z,8.10
2023-11-28T20:54:07.840Z,8.98
2023-11-28T20:57:14.821Z,8.13
2023-11-28T21:00:23.816Z,8.50
2023-11-28T21:03:29.813Z,8.63
2023-11-28T21:06:36.978Z,8.45
2023-11-28T21:09:44.880Z,8.00
2023-11-28T21:12:52.833Z,8.15
2023-11-28T21:16:02.838Z,7.80
2023-11-28T21:19:08.853Z,7.95
2023-11-28T21:22:14.872Z,8.25
2023-11-28T21:25:20.841Z,7.75
2023-11-28T21:28:36.872Z,7.88
2023-11-28T21:31:46.013Z,7.20
2023-11-28T21:34:53.849Z,7.72
2023-11-28T21:38:01.876Z,8.23
2023-11-28T21:41:07.952Z,7.72
2023-11-28T21:44:14.914Z,7.35
2023-11-28T21:47:22.873Z,6.80
2023-11-28T21:50:29.896Z,7.05
2023-11-28T21:53:37.077Z,6.35
2023-11-28T21:56:43.953Z,6.35
2023-11-28T21:59:51.888Z,6.00
2023-11-28T22:02:59.931Z,6.22
2023-11-28T22:06:06.943Z,5.55
2023-11-28T22:09:17.678Z,5.32
2023-11-28T22:12:26.620Z,4.85
2023-11-28T22:15:32.567Z,5.53
2023-11-28T22:18:41.597Z,4.88
2023-11-28T22:21:48.647Z,4.05
2023-11-28T22:24:54.603Z,4.78
2023-11-28T22:28:01.599Z,4.53
2023-11-28T22:31:09.629Z,4.50
2023-11-28T22:34:19.175Z,4.30
2023-11-28T22:37:25.190Z,4.70
2023-11-28T22:40:33.180Z,4.03
2023-11-28T22:43:41.210Z,4.32
2023-11-28T22:46:47.230Z,4.60
2023-11-28T22:49:55.231Z,4.38
2023-11-28T22:53:02.334Z,4.38
2023-11-28T22:56:08.240Z,4.05
2023-11-28T22:59:15.252Z,4.18
2023-11-28T23:02:25.338Z,4.57
2023-11-28T23:05:34.199Z,4.43
2023-11-28T23:08:43.260Z,4.65
2023-11-28T23:11:50.190Z,4.03
2023-11-28T23:14:56.242Z,4.00
2023-11-28T23:17:56.075Z,4.05
2023-11-28T23:20:59.245Z,4.32
2023-11-28T23:24:06.222Z,4.47
2023-11-28T23:27:14.264Z,4.18
2023-11-28T23:30:21.237Z,4.10
2023-11-28T23:33:29.294Z,3.83
2023-11-28T23:36:39.271Z,3.67
2023-11-28T23:39:45.246Z,3.80
2023-11-28T23:42:53.068Z,4.07
2023-11-28T23:45:59.238Z,3.47
2023-11-28T23:49:12.304Z,3.80
2023-11-28T23:52:21.236Z,3.47
2023-11-28T23:55:28.293Z,3.40
2023-11-28T23:58:34.315Z,2.78
